sensor_id;sensor_type;location;lat;lon;timestamp;temperature;humidity
52669;DHT22;76842;52.786;6.892;2024-02-26T00:03:18;4.50;100.00
52669;DHT22;76842;52.786;6.892;2024-02-26T00:06:38;4.50;100.00
52669;DHT22;76842;52.786;6.892;2024-02-26T00:10:01;4.50;100.00
52669;DHT22;76842;52.786;6.892;2024-02-26T00:13:22;4.50;100.00
52669;DHT22;76842;52.786;6.892;2024-02-26T00:16:42;4.40;100.00
52669;DHT22;76842;52.786;6.892;2024-02-26T00:20:06;4.50;100.00
52669;DHT22;76842;52.786;6.892;2024-02-26T00:23:29;4.40;100.00
52669;DHT22;76842;52.786;6.892;2024-02-26T00:26:49;4.40;100.00
52669;DHT22;76842;52.786;6.892;2024-02-26T00:30:13;4.40;100.00
52669;DHT22;76842;52.786;6.892;2024-02-26T00:33:34;4.40;100.00
52669;DHT22;76842;52.786;6.892;2024-02-26T00:36:54;4.30;100.00
52669;DHT22;76842;52.786;6.892;2024-02-26T00:40:15;4.30;100.00
52669;DHT22;76842;52.786;6.892;2024-02-26T00:43:36;4.30;100.00
52669;DHT22;76842;52.786;6.892;2024-02-26T00:46:58;4.30;100.00
52669;DHT22;76842;52.786;6.892;2024-02-26T00:50:19;4.30;100.00
52669;DHT22;76842;52.786;6.892;2024-02-26T00:53:39;4.30;100.00
52669;DHT22;76842;52.786;6.892;2024-02-26T00:57:00;4.30;100.00
52669;DHT22;76842;52.786;6.892;2024-02-26T01:00:20;4.30;100.00
52669;DHT22;76842;52.786;6.892;2024-02-26T01:03:41;4.30;100.00
52669;DHT22;76842;52.786;6.892;2024-02-26T01:07:02;4.20;100.00
52669;DHT22;76842;52.786;6.892;2024-02-26T01:10:23;4.20;100.00
52669;DHT22;76842;52.786;6.892;2024-02-26T01:13:44;4.20;100.00
52669;DHT22;76842;52.786;6.892;2024-02-26T01:17:04;4.20;100.00
52669;DHT22;76842;52.786;6.892;2024-02-26T01:20:25;4.20;100.00
52669;DHT22;76842;52.786;6.892;2024-02-26T01:23:45;4.20;100.00
52669;DHT22;76842;52.786;6.892;2024-02-26T01:27:06;4.30;100.00
52669;DHT22;76842;52.786;6.892;2024-02-26T01:30:28;4.30;100.00
52669;DHT22;76842;52.786;6.892;2024-02-26T01:33:48;4.30;100.00
52669;DHT22;76842;52.786;6.892;2024-02-26T01:37:09;4.20;100.00
52669;DHT22;76842;52.786;6.892;2024-02-26T01:40:30;4.20;100.00
52669;DHT22;76842;52.786;6.892;2024-02-26T01:43:50;4.20;100.00
52669;DHT22;76842;52.786;6.892;2024-02-26T01:47:13;4.20;100.00
52669;DHT22;76842;52.786;6.892;2024-02-26T01:50:34;4.30;100.00
52669;DHT22;76842;52.786;6.892;2024-02-26T01:53:55;4.30;100.00
52669;DHT22;76842;52.786;6.892;2024-02-26T01:57:15;4.20;100.00
52669;DHT22;76842;52.786;6.892;2024-02-26T02:00:37;4.10;100.00
52669;DHT22;76842;52.786;6.892;2024-02-26T02:03:59;4.10;100.00
52669;DHT22;76842;52.786;6.892;2024-02-26T02:07:21;4.10;100.00
52669;DHT22;76842;52.786;6.892;2024-02-26T02:10:43;4.10;100.00
52669;DHT22;76842;52.786;6.892;2024-02-26T02:14:04;4.10;100.00
52669;DHT22;76842;52.786;6.892;2024-02-26T02:17:25;4.10;100.00
52669;DHT22;76842;52.786;6.892;2024-02-26T02:20:45;4.10;100.00
52669;DHT22;76842;52.786;6.892;2024-02-26T02:24:06;4.00;100.00
52669;DHT22;76842;52.786;6.892;2024-02-26T02:27:28;4.00;100.00
52669;DHT22;76842;52.786;6.892;2024-02-26T02:30:49;4.00;100.00
52669;DHT22;76842;52.786;6.892;2024-02-26T02:34:10;3.90;100.00
52669;DHT22;76842;52.786;6.892;2024-02-26T02:37:31;3.90;100.00
52669;DHT22;76842;52.786;6.892;2024-02-26T02:40:52;3.90;100.00
52669;DHT22;76842;52.786;6.892;2024-02-26T02:44:13;3.90;100.00
52669;DHT22;76842;52.786;6.892;2024-02-26T02:47:36;4.00;100.00
52669;DHT22;76842;52.786;6.892;2024-02-26T02:50:57;4.00;100.00
52669;DHT22;76842;52.786;6.892;2024-02-26T02:54:18;3.90;100.00
52669;DHT22;76842;52.786;6.892;2024-02-26T02:57:39;3.90;100.00
52669;DHT22;76842;52.786;6.892;2024-02-26T03:01:01;3.90;100.00
52669;DHT22;76842;52.786;6.892;2024-02-26T03:04:22;3.90;100.00
52669;DHT22;76842;52.786;6.892;2024-02-26T03:07:42;3.90;100.00
52669;DHT22;76842;52.786;6.892;2024-02-26T03:11:04;3.90;100.00
52669;DHT22;76842;52.786;6.892;2024-02-26T03:14:24;3.90;100.00
52669;DHT22;76842;52.786;6.892;2024-02-26T03:17:45;3.90;100.00
52669;DHT22;76842;52.786;6.892;2024-02-26T03:21:06;3.90;100.00
52669;DHT22;76842;52.786;6.892;2024-02-26T03:24:27;4.00;100.00
52669;DHT22;76842;52.786;6.892;2024-02-26T03:27:48;4.00;100.00
52669;DHT22;76842;52.786;6.892;2024-02-26T03:31:08;4.00;100.00
52669;DHT22;76842;52.786;6.892;2024-02-26T03:34:29;4.00;100.00
52669;DHT22;76842;52.786;6.892;2024-02-26T03:37:51;4.00;100.00
52669;DHT22;76842;52.786;6.892;2024-02-26T03:41:12;3.90;100.00
52669;DHT22;76842;52.786;6.892;2024-02-26T03:44:32;3.90;100.00
52669;DHT22;76842;52.786;6.892;2024-02-26T03:47:53;3.80;100.00
52669;DHT22;76842;52.786;6.892;2024-02-26T03:51:13;3.80;100.00
52669;DHT22;76842;52.786;6.892;2024-02-26T03:54:34;3.80;100.00
52669;DHT22;76842;52.786;6.892;2024-02-26T03:57:55;3.80;100.00
52669;DHT22;76842;52.786;6.892;2024-02-26T04:01:15;3.80;100.00
52669;DHT22;76842;52.786;6.892;2024-02-26T04:04:36;3.80;100.00
52669;DHT22;76842;52.786;6.892;2024-02-26T04:07:56;3.80;100.00
52669;DHT22;76842;52.786;6.892;2024-02-26T04:11:17;3.70;100.00
52669;DHT22;76842;52.786;6.892;2024-02-26T04:14:41;3.70;100.00
52669;DHT22;76842;52.786;6.892;2024-02-26T04:18:01;3.70;100.00
52669;DHT22;76842;52.786;6.892;2024-02-26T04:21:23;3.70;100.00
52669;DHT22;76842;52.786;6.892;2024-02-26T04:24:43;3.70;100.00
52669;DHT22;76842;52.786;6.892;2024-02-26T04:28:04;3.70;100.00
52669;DHT22;76842;52.786;6.892;2024-02-26T04:31:25;3.70;100.00
52669;DHT22;76842;52.786;6.892;2024-02-26T04:34:46;3.80;100.00
52669;DHT22;76842;52.786;6.892;2024-02-26T04:38:07;3.80;100.00
52669;DHT22;76842;52.786;6.892;2024-02-26T04:41:27;3.80;100.00
52669;DHT22;76842;52.786;6.892;2024-02-26T04:44:48;3.80;100.00
52669;DHT22;76842;52.786;6.892;2024-02-26T04:48:09;3.70;100.00
52669;DHT22;76842;52.786;6.892;2024-02-26T04:51:29;3.80;100.00
52669;DHT22;76842;52.786;6.892;2024-02-26T04:54:50;3.80;100.00
52669;DHT22;76842;52.786;6.892;2024-02-26T04:58:11;3.80;100.00
52669;DHT22;76842;52.786;6.892;2024-02-26T05:01:31;3.80;100.00
52669;DHT22;76842;52.786;6.892;2024-02-26T05:04:52;3.80;100.00
52669;DHT22;76842;52.786;6.892;2024-02-26T05:08:13;3.80;100.00
52669;DHT22;76842;52.786;6.892;2024-02-26T05:11:33;3.90;100.00
52669;DHT22;76842;52.786;6.892;2024-02-26T05:14:54;3.90;100.00
52669;DHT22;76842;52.786;6.892;2024-02-26T05:18:15;3.90;100.00
52669;DHT22;76842;52.786;6.892;2024-02-26T05:21:36;3.90;100.00
52669;DHT22;76842;52.786;6.892;2024-02-26T05:24:56;3.90;100.00
52669;DHT22;76842;52.786;6.892;2024-02-26T05:28:17;3.90;100.00
52669;DHT22;76842;52.786;6.892;2024-02-26T05:31:44;4.00;100.00
52669;DHT22;76842;52.786;6.892;2024-02-26T05:35:05;4.00;100.00
52669;DHT22;76842;52.786;6.892;2024-02-26T05:38:25;4.00;100.00
52669;DHT22;76842;52.786;6.892;2024-02-26T05:41:46;4.00;100.00
52669;DHT22;76842;52.786;6.892;2024-02-26T05:45:07;4.00;100.00
52669;DHT22;76842;52.786;6.892;2024-02-26T05:48:28;4.00;100.00
52669;DHT22;76842;52.786;6.892;2024-02-26T05:51:48;4.00;100.00
52669;DHT22;76842;52.786;6.892;2024-02-26T05:55:09;4.00;100.00
52669;DHT22;76842;52.786;6.892;2024-02-26T05:58:29;4.00;100.00
52669;DHT22;76842;52.786;6.892;2024-02-26T06:01:50;4.00;100.00
52669;DHT22;76842;52.786;6.892;2024-02-26T06:05:11;4.00;100.00
52669;DHT22;76842;52.786;6.892;2024-02-26T06:08:31;4.00;100.00
52669;DHT22;76842;52.786;6.892;2024-02-26T06:11:52;4.00;100.00
52669;DHT22;76842;52.786;6.892;2024-02-26T06:15:12;4.00;100.00
52669;DHT22;76842;52.786;6.892;2024-02-26T06:18:33;4.00;100.00
52669;DHT22;76842;52.786;6.892;2024-02-26T06:21:54;4.00;100.00
52669;DHT22;76842;52.786;6.892;2024-02-26T06:25:15;4.00;100.00
52669;DHT22;76842;52.786;6.892;2024-02-26T06:28:36;4.00;100.00
52669;DHT22;76842;52.786;6.892;2024-02-26T06:32:00;4.10;100.00
52669;DHT22;76842;52.786;6.892;2024-02-26T06:35:21;4.00;100.00
52669;DHT22;76842;52.786;6.892;2024-02-26T06:38:42;4.00;100.00
52669;DHT22;76842;52.786;6.892;2024-02-26T06:42:02;4.00;100.00
52669;DHT22;76842;52.786;6.892;2024-02-26T06:45:23;4.00;100.00
52669;DHT22;76842;52.786;6.892;2024-02-26T06:48:43;4.00;100.00
52669;DHT22;76842;52.786;6.892;2024-02-26T06:52:04;4.00;100.00
52669;DHT22;76842;52.786;6.892;2024-02-26T06:55:26;4.00;100.00
52669;DHT22;76842;52.786;6.892;2024-02-26T06:58:47;4.00;100.00
52669;DHT22;76842;52.786;6.892;2024-02-26T07:02:07;4.00;100.00
52669;DHT22;76842;52.786;6.892;2024-02-26T07:05:28;4.10;100.00
52669;DHT22;76842;52.786;6.892;2024-02-26T07:08:49;4.10;100.00
52669;DHT22;76842;52.786;6.892;2024-02-26T07:12:10;4.10;100.00
52669;DHT22;76842;52.786;6.892;2024-02-26T07:15:30;4.10;100.00
52669;DHT22;76842;52.786;6.892;2024-02-26T07:18:51;4.10;100.00
52669;DHT22;76842;52.786;6.892;2024-02-26T07:22:11;4.10;100.00
52669;DHT22;76842;52.786;6.892;2024-02-26T07:25:32;4.20;100.00
52669;DHT22;76842;52.786;6.892;2024-02-26T07:28:53;4.20;100.00
52669;DHT22;76842;52.786;6.892;2024-02-26T07:32:13;4.20;100.00
52669;DHT22;76842;52.786;6.892;2024-02-26T07:35:34;4.20;100.00
52669;DHT22;76842;52.786;6.892;2024-02-26T07:38:56;4.20;100.00
52669;DHT22;76842;52.786;6.892;2024-02-26T07:42:17;4.20;100.00
52669;DHT22;76842;52.786;6.892;2024-02-26T07:45:38;4.20;100.00
52669;DHT22;76842;52.786;6.892;2024-02-26T07:48:58;4.20;100.00
52669;DHT22;76842;52.786;6.892;2024-02-26T07:52:19;4.20;100.00
52669;DHT22;76842;52.786;6.892;2024-02-26T07:55:39;4.20;100.00
52669;DHT22;76842;52.786;6.892;2024-02-26T07:59:00;4.20;100.00
52669;DHT22;76842;52.786;6.892;2024-02-26T08:02:21;4.20;100.00
52669;DHT22;76842;52.786;6.892;2024-02-26T08:05:42;4.20;100.00
52669;DHT22;76842;52.786;6.892;2024-02-26T08:09:03;4.20;100.00
52669;DHT22;76842;52.786;6.892;2024-02-26T08:12:24;4.30;100.00
52669;DHT22;76842;52.786;6.892;2024-02-26T08:15:45;4.30;100.00
52669;DHT22;76842;52.786;6.892;2024-02-26T08:19:05;4.30;100.00
52669;DHT22;76842;52.786;6.892;2024-02-26T08:22:26;4.30;100.00
52669;DHT22;76842;52.786;6.892;2024-02-26T08:25:47;4.40;100.00
52669;DHT22;76842;52.786;6.892;2024-02-26T08:29:08;4.40;100.00
52669;DHT22;76842;52.786;6.892;2024-02-26T08:32:28;4.40;100.00
52669;DHT22;76842;52.786;6.892;2024-02-26T08:35:49;4.40;100.00
52669;DHT22;76842;52.786;6.892;2024-02-26T08:39:09;4.40;100.00
52669;DHT22;76842;52.786;6.892;2024-02-26T08:42:30;4.40;100.00
52669;DHT22;76842;52.786;6.892;2024-02-26T08:45:51;4.40;100.00
52669;DHT22;76842;52.786;6.892;2024-02-26T08:49:11;4.40;100.00
52669;DHT22;76842;52.786;6.892;2024-02-26T08:52:32;4.40;100.00
52669;DHT22;76842;52.786;6.892;2024-02-26T08:55:53;4.40;100.00
52669;DHT22;76842;52.786;6.892;2024-02-26T08:59:14;4.40;100.00
52669;DHT22;76842;52.786;6.892;2024-02-26T09:02:36;4.40;100.00
52669;DHT22;76842;52.786;6.892;2024-02-26T09:05:59;4.50;100.00
52669;DHT22;76842;52.786;6.892;2024-02-26T09:09:20;4.50;100.00
52669;DHT22;76842;52.786;6.892;2024-02-26T09:12:42;4.50;100.00
52669;DHT22;76842;52.786;6.892;2024-02-26T09:16:03;4.50;100.00
52669;DHT22;76842;52.786;6.892;2024-02-26T09:19:25;4.50;100.00
52669;DHT22;76842;52.786;6.892;2024-02-26T09:22:47;4.60;100.00
52669;DHT22;76842;52.786;6.892;2024-02-26T09:26:08;4.50;100.00
52669;DHT22;76842;52.786;6.892;2024-02-26T09:29:29;4.60;100.00
52669;DHT22;76842;52.786;6.892;2024-02-26T09:32:50;4.60;100.00
52669;DHT22;76842;52.786;6.892;2024-02-26T09:36:10;4.60;100.00
52669;DHT22;76842;52.786;6.892;2024-02-26T09:39:31;4.60;100.00
52669;DHT22;76842;52.786;6.892;2024-02-26T09:42:56;4.60;100.00
52669;DHT22;76842;52.786;6.892;2024-02-26T09:46:19;4.60;100.00
52669;DHT22;76842;52.786;6.892;2024-02-26T09:49:41;4.70;100.00
52669;DHT22;76842;52.786;6.892;2024-02-26T09:53:04;4.70;100.00
52669;DHT22;76842;52.786;6.892;2024-02-26T09:56:25;4.70;100.00
52669;DHT22;76842;52.786;6.892;2024-02-26T09:59:48;4.70;100.00
52669;DHT22;76842;52.786;6.892;2024-02-26T10:03:13;4.70;100.00
52669;DHT22;76842;52.786;6.892;2024-02-26T10:06:36;4.70;100.00
52669;DHT22;76842;52.786;6.892;2024-02-26T10:09:57;4.80;100.00
52669;DHT22;76842;52.786;6.892;2024-02-26T10:13:18;4.80;100.00
52669;DHT22;76842;52.786;6.892;2024-02-26T10:16:41;4.80;100.00
52669;DHT22;76842;52.786;6.892;2024-02-26T10:20:16;4.90;100.00
52669;DHT22;76842;52.786;6.892;2024-02-26T10:23:38;4.90;100.00
52669;DHT22;76842;52.786;6.892;2024-02-26T10:26:58;5.00;100.00
52669;DHT22;76842;52.786;6.892;2024-02-26T10:30:23;5.00;100.00
52669;DHT22;76842;52.786;6.892;2024-02-26T10:33:43;5.10;100.00
52669;DHT22;76842;52.786;6.892;2024-02-26T10:37:05;5.20;100.00
52669;DHT22;76842;52.786;6.892;2024-02-26T10:40:25;5.20;100.00
52669;DHT22;76842;52.786;6.892;2024-02-26T10:43:47;5.20;100.00
52669;DHT22;76842;52.786;6.892;2024-02-26T10:47:08;5.20;100.00
52669;DHT22;76842;52.786;6.892;2024-02-26T10:50:29;5.20;100.00
52669;DHT22;76842;52.786;6.892;2024-02-26T10:53:51;5.20;100.00
52669;DHT22;76842;52.786;6.892;2024-02-26T10:57:18;5.10;100.00
52669;DHT22;76842;52.786;6.892;2024-02-26T11:00:40;5.20;100.00
52669;DHT22;76842;52.786;6.892;2024-02-26T11:04:02;5.20;100.00
52669;DHT22;76842;52.786;6.892;2024-02-26T11:07:23;5.20;100.00
52669;DHT22;76842;52.786;6.892;2024-02-26T11:10:47;5.30;100.00
52669;DHT22;76842;52.786;6.892;2024-02-26T11:14:09;5.30;100.00
52669;DHT22;76842;52.786;6.892;2024-02-26T11:17:30;5.30;100.00
52669;DHT22;76842;52.786;6.892;2024-02-26T11:20:52;5.30;100.00
52669;DHT22;76842;52.786;6.892;2024-02-26T11:24:17;5.30;100.00
52669;DHT22;76842;52.786;6.892;2024-02-26T11:27:43;5.40;100.00
52669;DHT22;76842;52.786;6.892;2024-02-26T11:31:05;5.50;100.00
52669;DHT22;76842;52.786;6.892;2024-02-26T11:34:27;5.60;100.00
52669;DHT22;76842;52.786;6.892;2024-02-26T11:37:54;5.70;100.00
52669;DHT22;76842;52.786;6.892;2024-02-26T11:41:15;5.70;100.00
52669;DHT22;76842;52.786;6.892;2024-02-26T11:44:37;5.70;100.00
52669;DHT22;76842;52.786;6.892;2024-02-26T11:47:57;5.70;100.00
52669;DHT22;76842;52.786;6.892;2024-02-26T11:51:25;5.70;100.00
52669;DHT22;76842;52.786;6.892;2024-02-26T11:54:49;5.70;100.00
52669;DHT22;76842;52.786;6.892;2024-02-26T11:58:11;5.70;100.00
52669;DHT22;76842;52.786;6.892;2024-02-26T12:05:20;5.80;100.00
52669;DHT22;76842;52.786;6.892;2024-02-26T12:08:40;5.80;100.00
52669;DHT22;76842;52.786;6.892;2024-02-26T12:12:02;5.80;100.00
52669;DHT22;76842;52.786;6.892;2024-02-26T12:15:24;5.80;100.00
52669;DHT22;76842;52.786;6.892;2024-02-26T12:18:44;5.90;100.00
52669;DHT22;76842;52.786;6.892;2024-02-26T12:22:07;6.00;100.00
52669;DHT22;76842;52.786;6.892;2024-02-26T12:25:29;6.00;100.00
52669;DHT22;76842;52.786;6.892;2024-02-26T12:28:51;5.90;100.00
52669;DHT22;76842;52.786;6.892;2024-02-26T12:32:12;6.00;100.00
52669;DHT22;76842;52.786;6.892;2024-02-26T12:35:33;6.00;100.00
52669;DHT22;76842;52.786;6.892;2024-02-26T12:38:55;5.90;100.00
52669;DHT22;76842;52.786;6.892;2024-02-26T12:42:16;5.90;100.00
52669;DHT22;76842;52.786;6.892;2024-02-26T12:45:39;5.90;100.00
52669;DHT22;76842;52.786;6.892;2024-02-26T12:49:00;6.00;100.00
52669;DHT22;76842;52.786;6.892;2024-02-26T12:52:22;6.00;100.00
52669;DHT22;76842;52.786;6.892;2024-02-26T12:55:43;6.00;100.00
52669;DHT22;76842;52.786;6.892;2024-02-26T12:59:04;6.00;100.00
52669;DHT22;76842;52.786;6.892;2024-02-26T13:02:25;6.00;100.00
52669;DHT22;76842;52.786;6.892;2024-02-26T13:05:46;6.00;100.00
52669;DHT22;76842;52.786;6.892;2024-02-26T13:09:07;6.00;100.00
52669;DHT22;76842;52.786;6.892;2024-02-26T13:12:29;6.10;100.00
52669;DHT22;76842;52.786;6.892;2024-02-26T13:15:49;6.00;100.00
52669;DHT22;76842;52.786;6.892;2024-02-26T13:19:10;6.10;100.00
52669;DHT22;76842;52.786;6.892;2024-02-26T13:22:31;6.10;100.00
52669;DHT22;76842;52.786;6.892;2024-02-26T13:25:56;6.10;100.00
52669;DHT22;76842;52.786;6.892;2024-02-26T13:29:17;6.10;100.00
52669;DHT22;76842;52.786;6.892;2024-02-26T13:32:40;6.10;100.00
52669;DHT22;76842;52.786;6.892;2024-02-26T13:36:00;6.10;100.00
52669;DHT22;76842;52.786;6.892;2024-02-26T13:39:25;6.10;100.00
52669;DHT22;76842;52.786;6.892;2024-02-26T13:42:45;6.00;100.00
52669;DHT22;76842;52.786;6.892;2024-02-26T13:46:08;6.00;100.00
52669;DHT22;76842;52.786;6.892;2024-02-26T13:49:31;6.10;100.00
52669;DHT22;76842;52.786;6.892;2024-02-26T13:52:51;6.10;100.00
52669;DHT22;76842;52.786;6.892;2024-02-26T13:56:14;6.10;100.00
52669;DHT22;76842;52.786;6.892;2024-02-26T13:59:35;6.10;100.00
52669;DHT22;76842;52.786;6.892;2024-02-26T14:02:55;6.10;100.00
52669;DHT22;76842;52.786;6.892;2024-02-26T14:06:16;6.00;100.00
52669;DHT22;76842;52.786;6.892;2024-02-26T14:09:37;6.00;100.00
52669;DHT22;76842;52.786;6.892;2024-02-26T14:12:58;5.90;100.00
52669;DHT22;76842;52.786;6.892;2024-02-26T14:16:19;5.90;100.00
52669;DHT22;76842;52.786;6.892;2024-02-26T14:19:41;6.00;100.00
52669;DHT22;76842;52.786;6.892;2024-02-26T14:23:04;6.00;100.00
52669;DHT22;76842;52.786;6.892;2024-02-26T14:26:25;6.00;100.00
52669;DHT22;76842;52.786;6.892;2024-02-26T14:29:45;6.00;100.00
52669;DHT22;76842;52.786;6.892;2024-02-26T14:33:06;5.90;100.00
52669;DHT22;76842;52.786;6.892;2024-02-26T14:36:27;5.90;100.00
52669;DHT22;76842;52.786;6.892;2024-02-26T14:39:48;5.90;100.00
52669;DHT22;76842;52.786;6.892;2024-02-26T14:43:10;5.80;100.00
52669;DHT22;76842;52.786;6.892;2024-02-26T14:46:30;5.80;100.00
52669;DHT22;76842;52.786;6.892;2024-02-26T14:49:51;5.70;100.00
52669;DHT22;76842;52.786;6.892;2024-02-26T14:53:12;5.70;100.00
52669;DHT22;76842;52.786;6.892;2024-02-26T14:56:32;5.70;100.00
52669;DHT22;76842;52.786;6.892;2024-02-26T14:59:53;5.60;100.00
52669;DHT22;76842;52.786;6.892;2024-02-26T15:03:14;5.60;100.00
52669;DHT22;76842;52.786;6.892;2024-02-26T15:06:34;5.60;100.00
52669;DHT22;76842;52.786;6.892;2024-02-26T15:09:55;5.60;100.00
52669;DHT22;76842;52.786;6.892;2024-02-26T15:13:17;5.60;100.00
52669;DHT22;76842;52.786;6.892;2024-02-26T15:16:38;5.60;100.00
52669;DHT22;76842;52.786;6.892;2024-02-26T15:19:59;5.50;100.00
52669;DHT22;76842;52.786;6.892;2024-02-26T15:23:19;5.50;100.00
52669;DHT22;76842;52.786;6.892;2024-02-26T15:26:40;5.50;100.00
52669;DHT22;76842;52.786;6.892;2024-02-26T15:30:01;5.50;100.00
52669;DHT22;76842;52.786;6.892;2024-02-26T15:33:23;5.50;100.00
52669;DHT22;76842;52.786;6.892;2024-02-26T15:36:44;5.50;100.00
52669;DHT22;76842;52.786;6.892;2024-02-26T15:40:06;5.40;100.00
52669;DHT22;76842;52.786;6.892;2024-02-26T15:43:27;5.50;100.00
52669;DHT22;76842;52.786;6.892;2024-02-26T15:46:47;5.50;100.00
52669;DHT22;76842;52.786;6.892;2024-02-26T15:50:08;5.50;100.00
52669;DHT22;76842;52.786;6.892;2024-02-26T15:53:30;5.50;100.00
52669;DHT22;76842;52.786;6.892;2024-02-26T15:56:51;5.40;100.00
52669;DHT22;76842;52.786;6.892;2024-02-26T16:00:12;5.40;100.00
52669;DHT22;76842;52.786;6.892;2024-02-26T16:03:38;5.40;100.00
52669;DHT22;76842;52.786;6.892;2024-02-26T16:07:01;5.40;100.00
52669;DHT22;76842;52.786;6.892;2024-02-26T16:10:24;5.30;100.00
52669;DHT22;76842;52.786;6.892;2024-02-26T16:13:50;5.30;100.00
52669;DHT22;76842;52.786;6.892;2024-02-26T16:17:21;5.30;100.00
52669;DHT22;76842;52.786;6.892;2024-02-26T16:20:43;5.30;100.00
52669;DHT22;76842;52.786;6.892;2024-02-26T16:24:04;5.30;100.00
52669;DHT22;76842;52.786;6.892;2024-02-26T16:27:24;5.30;100.00
52669;DHT22;76842;52.786;6.892;2024-02-26T16:30:45;5.30;100.00
52669;DHT22;76842;52.786;6.892;2024-02-26T16:34:06;5.30;100.00
52669;DHT22;76842;52.786;6.892;2024-02-26T16:37:27;5.30;100.00
52669;DHT22;76842;52.786;6.892;2024-02-26T16:40:48;5.30;100.00
52669;DHT22;76842;52.786;6.892;2024-02-26T16:44:09;5.30;100.00
52669;DHT22;76842;52.786;6.892;2024-02-26T16:47:30;5.30;100.00
52669;DHT22;76842;52.786;6.892;2024-02-26T16:50:51;5.20;100.00
52669;DHT22;76842;52.786;6.892;2024-02-26T16:54:11;5.20;100.00
52669;DHT22;76842;52.786;6.892;2024-02-26T16:57:32;5.20;100.00
52669;DHT22;76842;52.786;6.892;2024-02-26T17:00:52;5.10;100.00
52669;DHT22;76842;52.786;6.892;2024-02-26T17:04:13;5.10;100.00
52669;DHT22;76842;52.786;6.892;2024-02-26T17:07:34;5.10;100.00
52669;DHT22;76842;52.786;6.892;2024-02-26T17:10:54;5.00;100.00
52669;DHT22;76842;52.786;6.892;2024-02-26T17:14:15;5.00;100.00
52669;DHT22;76842;52.786;6.892;2024-02-26T17:17:36;5.00;100.00
52669;DHT22;76842;52.786;6.892;2024-02-26T17:20:57;5.00;100.00
52669;DHT22;76842;52.786;6.892;2024-02-26T17:24:17;4.90;100.00
52669;DHT22;76842;52.786;6.892;2024-02-26T17:27:38;4.90;100.00
52669;DHT22;76842;52.786;6.892;2024-02-26T17:30:59;5.00;100.00
52669;DHT22;76842;52.786;6.892;2024-02-26T17:34:19;4.90;100.00
52669;DHT22;76842;52.786;6.892;2024-02-26T17:37:43;4.90;100.00
52669;DHT22;76842;52.786;6.892;2024-02-26T17:41:07;4.90;100.00
52669;DHT22;76842;52.786;6.892;2024-02-26T17:44:37;4.90;100.00
52669;DHT22;76842;52.786;6.892;2024-02-26T17:47:57;4.90;100.00
52669;DHT22;76842;52.786;6.892;2024-02-26T17:51:18;4.80;100.00
52669;DHT22;76842;52.786;6.892;2024-02-26T17:54:38;4.80;100.00
52669;DHT22;76842;52.786;6.892;2024-02-26T17:57:59;4.70;100.00
52669;DHT22;76842;52.786;6.892;2024-02-26T18:01:19;4.70;100.00
52669;DHT22;76842;52.786;6.892;2024-02-26T18:04:40;4.70;100.00
52669;DHT22;76842;52.786;6.892;2024-02-26T18:08:01;4.70;100.00
52669;DHT22;76842;52.786;6.892;2024-02-26T18:11:21;4.70;100.00
52669;DHT22;76842;52.786;6.892;2024-02-26T18:14:42;4.70;100.00
52669;DHT22;76842;52.786;6.892;2024-02-26T18:18:03;4.70;100.00
52669;DHT22;76842;52.786;6.892;2024-02-26T18:21:23;4.70;100.00
52669;DHT22;76842;52.786;6.892;2024-02-26T18:24:46;4.70;100.00
52669;DHT22;76842;52.786;6.892;2024-02-26T18:28:06;4.70;100.00
52669;DHT22;76842;52.786;6.892;2024-02-26T18:31:28;4.70;100.00
52669;DHT22;76842;52.786;6.892;2024-02-26T18:34:49;4.70;100.00
52669;DHT22;76842;52.786;6.892;2024-02-26T18:38:09;4.70;100.00
52669;DHT22;76842;52.786;6.892;2024-02-26T18:41:30;4.70;100.00
52669;DHT22;76842;52.786;6.892;2024-02-26T18:44:51;4.60;100.00
52669;DHT22;76842;52.786;6.892;2024-02-26T18:48:11;4.60;100.00
52669;DHT22;76842;52.786;6.892;2024-02-26T18:51:32;4.60;100.00
52669;DHT22;76842;52.786;6.892;2024-02-26T18:54:53;4.60;100.00
52669;DHT22;76842;52.786;6.892;2024-02-26T18:58:13;4.60;100.00
52669;DHT22;76842;52.786;6.892;2024-02-26T19:01:34;4.60;100.00
52669;DHT22;76842;52.786;6.892;2024-02-26T19:04:57;4.60;100.00
52669;DHT22;76842;52.786;6.892;2024-02-26T19:08:18;4.60;100.00
52669;DHT22;76842;52.786;6.892;2024-02-26T19:11:38;4.60;100.00
52669;DHT22;76842;52.786;6.892;2024-02-26T19:14:59;4.60;100.00
52669;DHT22;76842;52.786;6.892;2024-02-26T19:18:19;4.50;100.00
52669;DHT22;76842;52.786;6.892;2024-02-26T19:21:40;4.60;100.00
52669;DHT22;76842;52.786;6.892;2024-02-26T19:25:04;4.60;100.00
52669;DHT22;76842;52.786;6.892;2024-02-26T19:28:25;4.60;100.00
52669;DHT22;76842;52.786;6.892;2024-02-26T19:31:46;4.50;100.00
52669;DHT22;76842;52.786;6.892;2024-02-26T19:35:07;4.50;100.00
52669;DHT22;76842;52.786;6.892;2024-02-26T19:38:30;4.50;100.00
52669;DHT22;76842;52.786;6.892;2024-02-26T19:41:50;4.50;100.00
52669;DHT22;76842;52.786;6.892;2024-02-26T19:45:11;4.50;100.00
52669;DHT22;76842;52.786;6.892;2024-02-26T19:48:32;4.50;100.00
52669;DHT22;76842;52.786;6.892;2024-02-26T19:51:53;4.50;100.00
52669;DHT22;76842;52.786;6.892;2024-02-26T19:55:13;4.40;100.00
52669;DHT22;76842;52.786;6.892;2024-02-26T19:58:35;4.40;100.00
52669;DHT22;76842;52.786;6.892;2024-02-26T20:01:56;4.40;100.00
52669;DHT22;76842;52.786;6.892;2024-02-26T20:05:17;4.30;100.00
52669;DHT22;76842;52.786;6.892;2024-02-26T20:08:37;4.30;100.00
52669;DHT22;76842;52.786;6.892;2024-02-26T20:11:59;4.30;100.00
52669;DHT22;76842;52.786;6.892;2024-02-26T20:15:21;4.30;100.00
52669;DHT22;76842;52.786;6.892;2024-02-26T20:18:42;4.40;100.00
52669;DHT22;76842;52.786;6.892;2024-02-26T20:22:02;4.30;100.00
52669;DHT22;76842;52.786;6.892;2024-02-26T20:25:23;4.30;100.00
52669;DHT22;76842;52.786;6.892;2024-02-26T20:28:44;4.40;100.00
52669;DHT22;76842;52.786;6.892;2024-02-26T20:32:05;4.30;100.00
52669;DHT22;76842;52.786;6.892;2024-02-26T20:35:26;4.30;100.00
52669;DHT22;76842;52.786;6.892;2024-02-26T20:38:46;4.30;100.00
52669;DHT22;76842;52.786;6.892;2024-02-26T20:42:08;4.30;100.00
52669;DHT22;76842;52.786;6.892;2024-02-26T20:45:29;4.30;100.00
52669;DHT22;76842;52.786;6.892;2024-02-26T20:48:50;4.20;100.00
52669;DHT22;76842;52.786;6.892;2024-02-26T20:52:11;4.30;100.00
52669;DHT22;76842;52.786;6.892;2024-02-26T20:55:31;4.20;100.00
52669;DHT22;76842;52.786;6.892;2024-02-26T20:58:52;4.20;100.00
52669;DHT22;76842;52.786;6.892;2024-02-26T21:02:12;4.20;100.00
52669;DHT22;76842;52.786;6.892;2024-02-26T21:05:36;4.10;100.00
52669;DHT22;76842;52.786;6.892;2024-02-26T21:08:56;4.20;100.00
52669;DHT22;76842;52.786;6.892;2024-02-26T21:12:17;4.20;100.00
52669;DHT22;76842;52.786;6.892;2024-02-26T21:15:38;4.10;100.00